createdAt,value
2018-02-19T00:00:22.619Z,1012.71
2018-02-19T00:01:22.630Z,1012.72
2018-02-19T00:02:22.642Z,1012.66
2018-02-19T00:03:22.650Z,1012.63
2018-02-19T00:04:22.664Z,1012.65
2018-02-19T00:05:22.669Z,1012.62
2018-02-19T00:06:22.681Z,1012.66
2018-02-19T00:07:22.692Z,1012.62
2018-02-19T00:08:22.701Z,1012.68
2018-02-19T00:09:22.710Z,1012.68
2018-02-19T00:10:22.721Z,1012.68
2018-02-19T00:11:22.729Z,1012.68
2018-02-19T00:12:22.738Z,1012.69
2018-02-19T00:13:22.751Z,1012.72
2018-02-19T00:14:22.759Z,1012.71
2018-02-19T00:15:22.771Z,1012.66
2018-02-19T00:16:22.778Z,1012.68
2018-02-19T00:17:22.789Z,1012.72
2018-02-19T00:18:22.807Z,1012.71
2018-02-19T00:19:22.808Z,1012.68
2018-02-19T00:20:22.819Z,1012.7
2018-02-19T00:21:22.829Z,1012.64
2018-02-19T00:22:22.840Z,1012.63
2018-02-19T00:23:22.849Z,1012.64
2018-02-19T00:24:22.858Z,1012.62
2018-02-19T00:25:22.867Z,1012.59
2018-02-19T00:26:22.878Z,1012.57
2018-02-19T00:27:22.888Z,1012.53
2018-02-19T00:28:22.900Z,1012.54
2018-02-19T00:29:22.909Z,1012.51
2018-02-19T00:30:22.916Z,1012.48
2018-02-19T00:31:22.929Z,1012.47
2018-02-19T00:32:22.936Z,1012.42
2018-02-19T00:33:22.947Z,1012.42
2018-02-19T00:34:22.958Z,1012.41
2018-02-19T00:35:22.967Z,1012.41
2018-02-19T00:36:22.977Z,1012.37
2018-02-19T00:37:22.986Z,1012.41
2018-02-19T00:38:22.996Z,1012.37
2018-02-19T00:39:23.006Z,1012.42
2018-02-19T00:40:23.020Z,1012.37
2018-02-19T00:41:23.027Z,1012.41
2018-02-19T00:42:23.037Z,1012.38
2018-02-19T00:43:23.046Z,1012.42
2018-02-19T00:44:23.055Z,1012.43
2018-02-19T00:45:23.065Z,1012.45
2018-02-19T00:46:23.074Z,1012.46
2018-02-19T00:47:23.086Z,1012.44
2018-02-19T00:48:23.095Z,1012.4
2018-02-19T00:49:23.104Z,1012.4
2018-02-19T00:50:23.115Z,1012.4
2018-02-19T00:51:23.123Z,1012.34
2018-02-19T00:52:23.133Z,1012.34
2018-02-19T00:53:23.145Z,1012.32
2018-02-19T00:54:23.154Z,1012.31
2018-02-19T00:55:23.164Z,1012.31
2018-02-19T00:56:23.172Z,1012.28
2018-02-19T00:57:23.182Z,1012.32
2018-02-19T00:58:23.194Z,1012.27
2018-02-19T00:59:23.202Z,1012.23
2018-02-19T01:00:23.212Z,1012.19
2018-02-19T01:01:23.223Z,1012.17
2018-02-19T01:02:23.235Z,1012.18
2018-02-19T01:03:23.241Z,1012.16
2018-02-19T01:04:23.252Z,1012.15
2018-02-19T01:05:23.260Z,1012.16
2018-02-19T01:06:23.270Z,1012.16
2018-02-19T01:07:23.281Z,1012.11
2018-02-19T01:08:23.290Z,1012.1
2018-02-19T01:09:23.299Z,1012.03
2018-02-19T01:10:23.312Z,1012
2018-02-19T01:11:23.323Z,1012
2018-02-19T01:12:23.329Z,1012.01
2018-02-19T01:13:23.340Z,1012
2018-02-19T01:14:23.348Z,1011.96
2018-02-19T01:15:23.358Z,1011.95
2018-02-19T01:16:23.369Z,1011.95
2018-02-19T01:17:23.379Z,1012
2018-02-19T01:18:23.390Z,1011.99
2018-02-19T01:19:23.398Z,1011.98
2018-02-19T01:20:23.406Z,1012
2018-02-19T01:21:23.416Z,1012.01
2018-02-19T01:22:23.425Z,1012.01
2018-02-19T01:23:23.435Z,1011.97
2018-02-19T01:24:23.444Z,1011.99
2018-02-19T01:25:23.455Z,1011.91
2018-02-19T01:26:23.468Z,1011.97
2018-02-19T01:27:23.475Z,1011.96
2018-02-19T01:28:23.485Z,1011.94
2018-02-19T01:29:23.493Z,1011.97
2018-02-19T01:30:23.504Z,1011.94
2018-02-19T01:31:23.515Z,1011.95
2018-02-19T01:32:23.521Z,1011.91
2018-02-19T01:33:23.532Z,1011.94
2018-02-19T01:34:23.540Z,1011.94
2018-02-19T01:35:23.553Z,1011.97
2018-02-19T01:36:23.562Z,1011.97
2018-02-19T01:37:23.573Z,1011.94
2018-02-19T01:38:23.582Z,1011.96
2018-02-19T01:39:23.590Z,1011.93
2018-02-19T01:40:23.601Z,1011.93
2018-02-19T01:41:23.611Z,1011.92
2018-02-19T01:42:23.619Z,1011.92
2018-02-19T01:43:23.629Z,1011.89
2018-02-19T01:44:23.639Z,1011.9
2018-02-19T01:45:23.654Z,1011.91
2018-02-19T01:46:23.657Z,1011.83
2018-02-19T01:47:23.670Z,1011.85
2018-02-19T01:48:23.677Z,1011.84
2018-02-19T01:49:23.686Z,1011.84
2018-02-19T01:50:23.710Z,1011.85
2018-02-19T01:51:23.707Z,1011.86
2018-02-19T01:52:23.716Z,1011.83
2018-02-19T01:53:23.726Z,1011.79
2018-02-19T01:54:23.734Z,1011.75
2018-02-19T01:55:23.744Z,1011.7
2018-02-19T01:56:23.855Z,1011.74
2018-02-19T01:57:23.763Z,1011.71
2018-02-19T01:58:23.772Z,1011.74
2018-02-19T01:59:23.785Z,1011.71
2018-02-19T02:00:23.792Z,1011.66
2018-02-19T02:01:23.802Z,1011.65
2018-02-19T02:02:23.812Z,1011.65
2018-02-19T02:03:23.821Z,1011.64
2018-02-19T02:04:23.831Z,1011.59
2018-02-19T02:05:23.839Z,1011.6
2018-02-19T02:06:23.900Z,1011.56
2018-02-19T02:07:23.862Z,1011.56
2018-02-19T02:08:23.868Z,1011.54
2018-02-19T02:09:23.879Z,1011.54
2018-02-19T02:10:23.888Z,1011.58
2018-02-19T02:11:23.899Z,1011.54
2018-02-19T02:12:23.907Z,1011.51
2018-02-19T02:13:23.916Z,1011.46
2018-02-19T02:14:23.926Z,1011.48
2018-02-19T02:15:23.935Z,1011.43
2018-02-19T02:16:23.994Z,1011.43
2018-02-19T02:17:24.002Z,1011.43
2018-02-19T02:18:23.965Z,1011.42
2018-02-19T02:19:23.973Z,1011.37
2018-02-19T02:20:23.983Z,1011.39
2018-02-19T02:21:24.242Z,1011.39
2018-02-19T02:22:24.009Z,1011.37
2018-02-19T02:23:24.013Z,1011.38
2018-02-19T02:24:24.020Z,1011.34
2018-02-19T02:25:24.031Z,1011.38
2018-02-19T02:26:24.042Z,1011.32
2018-02-19T02:27:24.049Z,1011.34
2018-02-19T02:28:24.059Z,1011.33
2018-02-19T02:29:24.070Z,1011.3
2018-02-19T02:30:24.079Z,1011.32
2018-02-19T02:31:24.186Z,1011.27
2018-02-19T02:32:24.098Z,1011.32
2018-02-19T02:33:24.106Z,1011.29
2018-02-19T02:34:24.119Z,1011.29
2018-02-19T02:35:24.124Z,1011.31
2018-02-19T02:36:24.186Z,1011.28
2018-02-19T02:37:24.146Z,1011.24
2018-02-19T02:38:24.156Z,1011.3
2018-02-19T02:39:24.166Z,1011.25
2018-02-19T02:40:24.173Z,1011.26
2018-02-19T02:41:24.183Z,1011.26
2018-02-19T02:42:24.191Z,1011.26
2018-02-19T02:43:24.202Z,1011.27
2018-02-19T02:44:24.210Z,1011.25
2018-02-19T02:45:24.221Z,1011.3
2018-02-19T02:46:24.330Z,1011.25
2018-02-19T02:47:24.239Z,1011.28
2018-02-19T02:48:24.251Z,1011.27
2018-02-19T02:49:24.259Z,1011.29
2018-02-19T02:50:24.267Z,1011.31
2018-02-19T02:51:24.278Z,1011.26
2018-02-19T02:52:24.284Z,1011.26
2018-02-19T02:53:24.297Z,1011.3
2018-02-19T02:54:24.305Z,1011.3
2018-02-19T02:55:24.314Z,1011.29
2018-02-19T02:56:24.322Z,1011.32
2018-02-19T02:57:24.333Z,1011.31
2018-02-19T02:58:24.343Z,1011.3
2018-02-19T02:59:24.395Z,1011.3
2018-02-19T03:00:24.360Z,1011.33
2018-02-19T03:01:24.372Z,1011.28
2018-02-19T03:02:24.380Z,1011.29
2018-02-19T03:03:24.389Z,1011.26
2018-02-19T03:04:24.398Z,1011.28
2018-02-19T03:05:24.409Z,1011.24
2018-02-19T03:06:24.418Z,1011.26
2018-02-19T03:07:24.425Z,1011.21
2018-02-19T03:08:24.437Z,1011.22
2018-02-19T03:09:24.449Z,1011.26
2018-02-19T03:10:24.454Z,1011.24
2018-02-19T03:11:24.515Z,1011.2
2018-02-19T03:12:24.477Z,1011.21
2018-02-19T03:13:24.485Z,1011.2
2018-02-19T03:14:24.492Z,1011.22
2018-02-19T03:15:24.500Z,1011.21
2018-02-19T03:16:24.510Z,1011.21
2018-02-19T03:17:24.521Z,1011.19
2018-02-19T03:18:24.538Z,1011.17
2018-02-19T03:19:24.541Z,1011.17
2018-02-19T03:20:24.635Z,1011.15
2018-02-19T03:21:24.557Z,1011.12
2018-02-19T03:22:24.567Z,1011.14
2018-02-19T03:23:24.575Z,1011.1
2018-02-19T03:24:24.591Z,1011.09
2018-02-19T03:25:24.594Z,1011.14
2018-02-19T03:26:24.604Z,1011.11
2018-02-19T03:27:24.621Z,1011.1
2018-02-19T03:28:24.628Z,1011.07
2018-02-19T03:29:24.637Z,1011.04
2018-02-19T03:30:24.642Z,1011.01
2018-02-19T03:31:24.652Z,1011.03
2018-02-19T03:32:24.662Z,1011.02
2018-02-19T03:33:24.669Z,1011.03
2018-02-19T03:34:24.678Z,1011
2018-02-19T03:35:24.687Z,1011.01
2018-02-19T03:36:24.696Z,1010.99
2018-02-19T03:37:24.707Z,1010.99
2018-02-19T03:38:24.716Z,1010.97
2018-02-19T03:39:24.725Z,1010.97
2018-02-19T03:40:24.734Z,1011.01
2018-02-19T03:41:24.743Z,1010.99
2018-02-19T03:42:24.752Z,1010.96
2018-02-19T03:43:24.761Z,1010.98
2018-02-19T03:44:24.770Z,1010.96
2018-02-19T03:45:24.780Z,1010.97
2018-02-19T03:46:24.789Z,1010.97
2018-02-19T03:47:24.798Z,1010.95
2018-02-19T03:48:24.808Z,1010.93
2018-02-19T03:49:24.816Z,1010.98
2018-02-19T03:50:24.825Z,1010.96
2018-02-19T03:51:24.836Z,1010.98
2018-02-19T03:52:24.847Z,1010.93
2018-02-19T03:53:24.854Z,1010.9
2018-02-19T03:54:24.862Z,1010.94
2018-02-19T03:55:24.873Z,1010.92
2018-02-19T03:56:24.885Z,1010.91
2018-02-19T03:57:24.892Z,1010.89
2018-02-19T03:58:24.900Z,1010.89
2018-02-19T03:59:24.910Z,1010.89
2018-02-19T04:00:24.918Z,1010.89
2018-02-19T04:01:24.982Z,1010.87
2018-02-19T04:02:24.936Z,1010.86
2018-02-19T04:03:24.946Z,1010.89
2018-02-19T04:04:24.954Z,1010.9
2018-02-19T04:05:24.965Z,1010.87
2018-02-19T04:06:24.972Z,1010.9
2018-02-19T04:07:24.981Z,1010.87
2018-02-19T04:08:24.996Z,1010.86
2018-02-19T04:09:24.998Z,1010.85
2018-02-19T04:10:25.047Z,1010.83
2018-02-19T04:11:25.019Z,1010.83
2018-02-19T04:12:25.027Z,1010.83
2018-02-19T04:13:25.038Z,1010.85
2018-02-19T04:14:25.044Z,1010.83
2018-02-19T04:15:25.056Z,1010.83
2018-02-19T04:16:25.068Z,1010.81
2018-02-19T04:17:25.073Z,1010.84
2018-02-19T04:18:25.081Z,1010.84
2018-02-19T04:19:25.091Z,1010.8
2018-02-19T04:20:25.099Z,1010.83
2018-02-19T04:21:25.108Z,1010.82
2018-02-19T04:22:25.118Z,1010.82
2018-02-19T04:23:25.128Z,1010.85
2018-02-19T04:24:25.135Z,1010.84
2018-02-19T04:25:25.145Z,1010.83
2018-02-19T04:26:25.155Z,1010.79
2018-02-19T04:27:25.163Z,1010.82
2018-02-19T04:28:25.173Z,1010.79
2018-02-19T04:29:25.188Z,1010.76
2018-02-19T04:30:25.191Z,1010.76
2018-02-19T04:31:25.200Z,1010.73
2018-02-19T04:32:25.209Z,1010.71
2018-02-19T04:33:25.217Z,1010.72
2018-02-19T04:34:25.227Z,1010.65
2018-02-19T04:35:25.236Z,1010.69
2018-02-19T04:36:25.246Z,1010.68
2018-02-19T04:37:25.254Z,1010.67
2018-02-19T04:38:25.263Z,1010.63
2018-02-19T04:39:25.272Z,1010.65
2018-02-19T04:40:25.288Z,1010.63
2018-02-19T04:41:25.290Z,1010.64
2018-02-19T04:42:25.298Z,1010.63
2018-02-19T04:43:25.310Z,1010.65
2018-02-19T04:44:25.316Z,1010.62
2018-02-19T04:45:25.327Z,1010.59
2018-02-19T04:46:25.336Z,1010.59
2018-02-19T04:47:25.345Z,1010.56
2018-02-19T04:48:25.354Z,1010.58
2018-02-19T04:49:25.364Z,1010.6
2018-02-19T04:50:25.374Z,1010.6
2018-02-19T04:51:25.381Z,1010.63
2018-02-19T04:52:25.390Z,1010.58
2018-02-19T04:53:25.400Z,1010.57
2018-02-19T04:54:25.408Z,1010.54
2018-02-19T04:55:25.420Z,1010.52
2018-02-19T04:56:25.427Z,1010.51
2018-02-19T04:57:25.434Z,1010.47
2018-02-19T04:58:25.444Z,1010.47
2018-02-19T04:59:25.453Z,1010.48
2018-02-19T05:00:25.463Z,1010.45
2018-02-19T05:01:25.471Z,1010.47
2018-02-19T05:02:25.480Z,1010.43
2018-02-19T05:03:25.492Z,1010.43
2018-02-19T05:04:25.496Z,1010.41
2018-02-19T05:05:25.506Z,1010.42
2018-02-19T05:06:25.515Z,1010.37
2018-02-19T05:07:25.524Z,1010.38
2018-02-19T05:08:25.538Z,1010.36
2018-02-19T05:09:25.541Z,1010.37
2018-02-19T05:10:25.552Z,1010.34
2018-02-19T05:11:25.560Z,1010.33
2018-02-19T05:12:25.571Z,1010.36
2018-02-19T05:13:25.578Z,1010.38
2018-02-19T05:14:25.634Z,1010.36
2018-02-19T05:15:25.595Z,1010.33
2018-02-19T05:16:25.604Z,1010.34
2018-02-19T05:17:25.614Z,1010.35
2018-02-19T05:18:25.622Z,1010.3
2018-02-19T05:19:25.632Z,1010.35
2018-02-19T05:20:25.640Z,1010.31
2018-02-19T05:21:25.649Z,1010.32
2018-02-19T05:22:25.658Z,1010.31
2018-02-19T05:23:25.670Z,1010.36
2018-02-19T05:24:25.676Z,1010.39
2018-02-19T05:25:25.688Z,1010.37
2018-02-19T05:26:25.695Z,1010.39
2018-02-19T05:27:25.704Z,1010.4
2018-02-19T05:28:25.712Z,1010.37
2018-02-19T05:29:25.720Z,1010.43
2018-02-19T05:30:25.729Z,1010.45
2018-02-19T05:31:25.737Z,1010.4
2018-02-19T05:32:25.746Z,1010.39
2018-02-19T05:33:25.755Z,1010.41
2018-02-19T05:34:25.764Z,1010.39
2018-02-19T05:35:25.773Z,1010.38
2018-02-19T05:36:25.781Z,1010.37
2018-02-19T05:37:25.793Z,1010.37
2018-02-19T05:38:25.800Z,1010.39
2018-02-19T05:39:25.807Z,1010.39
2018-02-19T05:40:25.817Z,1010.35
2018-02-19T05:41:25.849Z,1010.36
2018-02-19T05:42:25.836Z,1010.31
2018-02-19T05:43:25.844Z,1010.31
2018-02-19T05:44:25.853Z,1010.3
2018-02-19T05:45:25.860Z,1010.29
2018-02-19T05:46:25.871Z,1010.3
2018-02-19T05:47:25.880Z,1010.31
2018-02-19T05:48:25.887Z,1010.33
2018-02-19T05:49:25.896Z,1010.34
2018-02-19T05:50:25.950Z,1010.34
2018-02-19T05:51:25.916Z,1010.32
2018-02-19T05:52:25.923Z,1010.32
2018-02-19T05:53:25.935Z,1010.29
2018-02-19T05:54:25.941Z,1010.29
2018-02-19T05:55:25.950Z,1010.27
2018-02-19T05:56:25.958Z,1010.31
2018-02-19T05:57:26.006Z,1010.34
2018-02-19T05:58:25.979Z,1010.29
2018-02-19T05:59:25.984Z,1010.31
2018-02-19T06:00:25.995Z,1010.3
2018-02-19T06:01:26.003Z,1010.33
2018-02-19T06:02:26.011Z,1010.33
2018-02-19T06:03:26.022Z,1010.31
2018-02-19T06:04:26.030Z,1010.39
2018-02-19T06:05:26.038Z,1010.36
2018-02-19T06:06:26.046Z,1010.38
2018-02-19T06:07:26.056Z,1010.36
2018-02-19T06:08:26.065Z,1010.36
2018-02-19T06:09:26.071Z,1010.36
2018-02-19T06:10:26.081Z,1010.38
2018-02-19T06:11:26.091Z,1010.32
2018-02-19T06:12:26.110Z,1010.32
2018-02-19T06:13:26.108Z,1010.33
2018-02-19T06:14:26.116Z,1010.36
2018-02-19T06:15:26.124Z,1010.31
2018-02-19T06:16:26.136Z,1010.39
2018-02-19T06:17:26.146Z,1010.34
2018-02-19T06:18:26.153Z,1010.35
2018-02-19T06:19:26.161Z,1010.36
2018-02-19T06:20:26.168Z,1010.31
2018-02-19T06:21:26.178Z,1010.33
2018-02-19T06:22:26.188Z,1010.37
2018-02-19T06:23:26.196Z,1010.33
2018-02-19T06:24:26.211Z,1010.35
2018-02-19T06:25:26.215Z,1010.37
2018-02-19T06:26:26.222Z,1010.38
2018-02-19T06:27:26.233Z,1010.36
2018-02-19T06:28:26.240Z,1010.34
2018-02-19T06:29:26.248Z,1010.34
2018-02-19T06:30:26.259Z,1010.39
2018-02-19T06:31:26.265Z,1010.37
2018-02-19T06:32:26.275Z,1010.4
2018-02-19T06:33:26.284Z,1010.35
2018-02-19T06:34:26.293Z,1010.34
2018-02-19T06:35:26.301Z,1010.37
2018-02-19T06:36:26.312Z,1010.38
2018-02-19T06:37:26.318Z,1010.38
2018-02-19T06:38:26.339Z,1010.39
2018-02-19T06:39:26.344Z,1010.4
2018-02-19T06:40:26.355Z,1010.39
2018-02-19T06:41:26.353Z,1010.37
2018-02-19T06:42:26.360Z,1010.4
2018-02-19T06:43:26.370Z,1010.37
2018-02-19T06:44:26.379Z,1010.35
2018-02-19T06:45:26.387Z,1010.38
2018-02-19T06:46:26.396Z,1010.39
2018-02-19T06:47:26.405Z,1010.42
2018-02-19T06:48:26.415Z,1010.36
2018-02-19T06:49:26.424Z,1010.35
2018-02-19T06:50:26.432Z,1010.45
2018-02-19T06:51:26.444Z,1010.43
2018-02-19T06:52:26.451Z,1010.46
2018-02-19T06:53:26.461Z,1010.41
2018-02-19T06:54:26.495Z,1010.4
2018-02-19T06:55:26.474Z,1010.39
2018-02-19T06:56:26.485Z,1010.4
2018-02-19T06:57:26.493Z,1010.39
2018-02-19T06:58:26.504Z,1010.36
2018-02-19T06:59:26.544Z,1010.34
2018-02-19T07:00:26.520Z,1010.4
2018-02-19T07:01:26.529Z,1010.39
2018-02-19T07:02:26.542Z,1010.39
2018-02-19T07:03:26.548Z,1010.43
2018-02-19T07:04:26.588Z,1010.39
2018-02-19T07:05:26.564Z,1010.38
2018-02-19T07:06:26.571Z,1010.42
2018-02-19T07:07:26.580Z,1010.37
2018-02-19T07:08:26.590Z,1010.35
2018-02-19T07:09:26.597Z,1010.39
2018-02-19T07:10:26.608Z,1010.33
2018-02-19T07:11:26.616Z,1010.34
2018-02-19T07:12:26.624Z,1010.31
2018-02-19T07:13:26.633Z,1010.29
2018-02-19T07:14:26.641Z,1010.33
2018-02-19T07:15:26.650Z,1010.32
2018-02-19T07:16:26.659Z,1010.31
2018-02-19T07:17:26.668Z,1010.34
2018-02-19T07:18:26.677Z,1010.29
2018-02-19T07:19:26.684Z,1010.31
2018-02-19T07:20:26.695Z,1010.31
2018-02-19T07:21:26.703Z,1010.29
2018-02-19T07:22:26.711Z,1010.32
2018-02-19T07:23:26.721Z,1010.28
2018-02-19T07:24:26.729Z,1010.28
2018-02-19T07:25:26.738Z,1010.26
2018-02-19T07:26:26.749Z,1010.27
2018-02-19T07:27:26.755Z,1010.25
2018-02-19T07:28:26.764Z,1010.23
2018-02-19T07:29:26.774Z,1010.22
2018-02-19T07:30:26.784Z,1010.21
2018-02-19T07:31:26.842Z,1010.22
2018-02-19T07:32:26.799Z,1010.2
2018-02-19T07:33:26.809Z,1010.18
2018-02-19T07:34:26.819Z,1010.2
2018-02-19T07:35:26.829Z,1010.2
2018-02-19T07:36:26.845Z,1010.16
2018-02-19T07:37:26.844Z,1010.18
2018-02-19T07:38:26.853Z,1010.19
2018-02-19T07:39:26.861Z,1010.17
2018-02-19T07:40:26.875Z,1010.18
2018-02-19T07:41:26.878Z,1010.19
2018-02-19T07:42:26.889Z,1010.18
2018-02-19T07:43:26.896Z,1010.21
2018-02-19T07:44:26.906Z,1010.26
2018-02-19T07:45:26.915Z,1010.22
2018-02-19T07:46:26.925Z,1010.28
2018-02-19T07:47:26.938Z,1010.27
2018-02-19T07:48:26.940Z,1010.26
2018-02-19T07:49:26.949Z,1010.24
2018-02-19T07:50:26.958Z,1010.23
2018-02-19T07:51:26.969Z,1010.27
2018-02-19T07:52:26.977Z,1010.23
2018-02-19T07:53:26.986Z,1010.2
2018-02-19T07:54:27.000Z,1010.16
2018-02-19T07:55:27.005Z,1010.21
2018-02-19T07:56:27.014Z,1010.18
2018-02-19T07:57:27.022Z,1010.18
2018-02-19T07:58:27.031Z,1010.19
2018-02-19T07:59:27.041Z,1010.18
2018-02-19T08:00:27.048Z,1010.19
2018-02-19T08:01:27.059Z,1010.17
2018-02-19T08:02:27.102Z,1010.16
2018-02-19T08:03:27.076Z,1010.18
2018-02-19T08:04:27.085Z,1010.17
2018-02-19T08:05:27.095Z,1010.14
2018-02-19T08:06:27.103Z,1010.16
2018-02-19T08:07:27.116Z,1010.06
2018-02-19T08:08:27.122Z,1010.1
2018-02-19T08:09:27.130Z,1010.08
2018-02-19T08:10:27.139Z,1010.07
2018-02-19T08:11:27.155Z,1010.13
2018-02-19T08:12:27.225Z,1010.11
2018-02-19T08:13:27.169Z,1010.12
2018-02-19T08:14:27.174Z,1010.1
2018-02-19T08:15:27.186Z,1010.07
2018-02-19T08:16:27.203Z,1010.08
2018-02-19T08:17:27.201Z,1010.07
2018-02-19T08:18:27.212Z,1010.06
2018-02-19T08:19:27.222Z,1010.03
2018-02-19T08:20:27.231Z,1010.03
2018-02-19T08:21:27.240Z,1010.07
2018-02-19T08:22:27.249Z,1010
2018-02-19T08:23:27.258Z,1010.06
2018-02-19T08:24:27.268Z,1010.04
2018-02-19T08:25:27.278Z,1010.04
2018-02-19T08:26:27.284Z,1010.1
2018-02-19T08:27:27.294Z,1010.12
2018-02-19T08:28:27.303Z,1010.08
2018-02-19T08:29:27.312Z,1010.09
2018-02-19T08:30:27.321Z,1010.09
2018-02-19T08:31:27.333Z,1010.09
2018-02-19T08:32:27.340Z,1010.07
2018-02-19T08:33:27.349Z,1010.05
2018-02-19T08:34:27.357Z,1010.03
2018-02-19T08:35:27.369Z,1010.05
2018-02-19T08:36:27.376Z,1010.02
2018-02-19T08:37:27.386Z,1010.01
2018-02-19T08:38:27.400Z,1009.99
2018-02-19T08:39:27.404Z,1009.98
2018-02-19T08:40:27.414Z,1009.97
2018-02-19T08:41:27.463Z,1009.95
2018-02-19T08:42:27.432Z,1009.97
2018-02-19T08:43:27.446Z,1009.97
2018-02-19T08:44:27.450Z,1009.93
2018-02-19T08:45:27.462Z,1009.97
2018-02-19T08:46:27.469Z,1009.88
2018-02-19T08:47:27.479Z,1009.93
2018-02-19T08:48:27.488Z,1009.9
2018-02-19T08:49:27.497Z,1009.9
2018-02-19T08:50:27.508Z,1009.88
2018-02-19T08:51:27.515Z,1009.88
2018-02-19T08:52:27.524Z,1009.84
2018-02-19T08:53:27.534Z,1009.82
2018-02-19T08:54:27.545Z,1009.87
2018-02-19T08:55:27.555Z,1009.84
2018-02-19T08:56:27.564Z,1009.84
2018-02-19T08:57:27.572Z,1009.87
2018-02-19T08:58:27.584Z,1009.86
2018-02-19T08:59:27.625Z,1009.83
2018-02-19T09:00:27.601Z,1009.84
2018-02-19T09:01:27.608Z,1009.81
2018-02-19T09:02:27.619Z,1009.82
2018-02-19T09:03:27.628Z,1009.82
2018-02-19T09:04:27.638Z,1009.82
2018-02-19T09:05:27.646Z,1009.78
2018-02-19T09:06:27.656Z,1009.81
2018-02-19T09:07:27.669Z,1009.73
2018-02-19T09:08:27.677Z,1009.73
2018-02-19T09:09:27.686Z,1009.77
2018-02-19T09:10:27.695Z,1009.73
2018-02-19T09:11:27.705Z,1009.73
2018-02-19T09:12:27.713Z,1009.68
2018-02-19T09:13:27.726Z,1009.66
2018-02-19T09:14:27.732Z,1009.66
2018-02-19T09:15:27.744Z,1009.69
2018-02-19T09:16:27.751Z,1009.71
2018-02-19T09:17:27.790Z,1009.67
2018-02-19T09:18:27.772Z,1009.65
2018-02-19T09:19:27.781Z,1009.7
2018-02-19T09:20:27.789Z,1009.67
2018-02-19T09:21:27.799Z,1009.65
2018-02-19T09:22:27.809Z,1009.66
2018-02-19T09:23:27.820Z,1009.65
2018-02-19T09:24:27.829Z,1009.63
2018-02-19T09:25:27.838Z,1009.65
2018-02-19T09:26:27.847Z,1009.62
2018-02-19T09:27:27.857Z,1009.61
2018-02-19T09:28:27.867Z,1009.57
2018-02-19T09:29:27.877Z,1009.56
2018-02-19T09:30:27.887Z,1009.55
2018-02-19T09:31:27.901Z,1009.59
2018-02-19T09:32:27.906Z,1009.56
2018-02-19T09:33:27.916Z,1009.6
2018-02-19T09:34:27.927Z,1009.58
2018-02-19T09:35:27.936Z,1009.58
2018-02-19T09:36:27.945Z,1009.56
2018-02-19T09:37:27.956Z,1009.53
2018-02-19T09:38:27.965Z,1009.56
2018-02-19T09:39:27.985Z,1009.54
2018-02-19T09:40:27.985Z,1009.58
2018-02-19T09:41:27.993Z,1009.6
2018-02-19T09:42:28.006Z,1009.62
2018-02-19T09:43:28.014Z,1009.56
2018-02-19T09:44:28.025Z,1009.53
2018-02-19T09:45:28.032Z,1009.54
2018-02-19T09:46:28.042Z,1009.6
2018-02-19T09:47:28.054Z,1009.59
2018-02-19T09:48:28.062Z,1009.54
2018-02-19T09:49:28.071Z,1009.59
2018-02-19T09:50:28.081Z,1009.6
2018-02-19T09:51:28.092Z,1009.58
2018-02-19T09:52:28.104Z,1009.61
2018-02-19T09:53:28.111Z,1009.63
2018-02-19T09:54:28.121Z,1009.63
2018-02-19T09:55:28.131Z,1009.62
2018-02-19T09:56:28.140Z,1009.58
2018-02-19T09:57:28.151Z,1009.59
2018-02-19T09:58:28.177Z,1009.57
2018-02-19T09:59:28.173Z,1009.58
2018-02-19T10:00:28.182Z,1009.53
2018-02-19T10:01:28.191Z,1009.51
2018-02-19T10:02:28.202Z,1009.52
2018-02-19T10:03:28.210Z,1009.51
2018-02-19T10:04:28.220Z,1009.46
2018-02-19T10:05:28.280Z,1009.44
2018-02-19T10:06:28.243Z,1009.43
2018-02-19T10:07:28.251Z,1009.47
2018-02-19T10:08:28.262Z,1009.42
2018-02-19T10:09:28.273Z,1009.43
2018-02-19T10:10:28.282Z,1009.41
2018-02-19T10:11:28.292Z,1009.43
2018-02-19T10:12:28.301Z,1009.42
2018-02-19T10:13:28.312Z,1009.43
2018-02-19T10:14:28.322Z,1009.35
2018-02-19T10:15:28.384Z,1009.31
2018-02-19T10:16:28.342Z,1009.33
2018-02-19T10:17:28.353Z,1009.36
2018-02-19T10:18:28.372Z,1009.38
2018-02-19T10:19:28.372Z,1009.35
2018-02-19T10:20:28.386Z,1009.36
2018-02-19T10:21:28.395Z,1009.37
2018-02-19T10:22:28.404Z,1009.4
2018-02-19T10:23:28.415Z,1009.34
2018-02-19T10:24:28.425Z,1009.39
2018-02-19T10:25:28.435Z,1009.42
2018-02-19T10:26:28.446Z,1009.38
2018-02-19T10:27:28.456Z,1009.37
2018-02-19T10:28:28.468Z,1009.4
2018-02-19T10:29:28.475Z,1009.34
2018-02-19T10:30:28.508Z,1009.33
2018-02-19T10:31:28.497Z,1009.34
2018-02-19T10:32:28.508Z,1009.29
2018-02-19T10:33:28.518Z,1009.24
2018-02-19T10:34:28.529Z,1009.27
2018-02-19T10:35:28.539Z,1009.27
2018-02-19T10:36:28.549Z,1009.23
2018-02-19T10:37:28.560Z,1009.21
2018-02-19T10:38:28.572Z,1009.18
2018-02-19T10:39:28.581Z,1009.2
2018-02-19T10:40:28.593Z,1009.2
2018-02-19T10:41:28.605Z,1009.23
2018-02-19T10:42:28.616Z,1009.2
2018-02-19T10:43:28.624Z,1009.18
2018-02-19T10:44:28.636Z,1009.21
2018-02-19T10:45:28.645Z,1009.18
2018-02-19T10:46:28.658Z,1009.18
2018-02-19T10:47:28.667Z,1009.16
2018-02-19T10:48:28.727Z,1009.16
2018-02-19T10:49:28.689Z,1009.15
2018-02-19T10:50:28.700Z,1009.12
2018-02-19T10:51:28.709Z,1009.16
2018-02-19T10:52:28.720Z,1009.15
2018-02-19T10:53:28.732Z,1009.15
2018-02-19T10:54:28.745Z,1009.15
2018-02-19T10:55:28.755Z,1009.15
2018-02-19T10:56:28.766Z,1009.13
2018-02-19T10:57:28.777Z,1009.12
2018-02-19T10:58:28.787Z,1009.09
2018-02-19T10:59:28.799Z,1009.11
2018-02-19T11:00:28.810Z,1009.14
2018-02-19T11:01:28.820Z,1009.07
2018-02-19T11:02:28.830Z,1009.1
2018-02-19T11:03:28.844Z,1009.06
2018-02-19T11:04:28.858Z,1009.03
2018-02-19T11:05:28.866Z,1009
2018-02-19T11:06:28.877Z,1009
2018-02-19T11:07:28.888Z,1008.99
2018-02-19T11:08:28.900Z,1009
2018-02-19T11:09:28.910Z,1008.96
2018-02-19T11:10:28.922Z,1008.97
2018-02-19T11:11:28.933Z,1008.99
2018-02-19T11:12:28.961Z,1008.96
2018-02-19T11:13:28.957Z,1008.96
2018-02-19T11:14:28.969Z,1008.94
2018-02-19T11:15:28.978Z,1008.93
2018-02-19T11:16:28.989Z,1008.95
2018-02-19T11:17:28.999Z,1008.9
2018-02-19T11:18:29.063Z,1008.93
2018-02-19T11:19:29.027Z,1008.88
2018-02-19T11:20:29.034Z,1008.91
2018-02-19T11:21:29.045Z,1008.91
2018-02-19T11:22:29.057Z,1008.87
2018-02-19T11:23:29.120Z,1008.87
2018-02-19T11:24:29.081Z,1008.84
2018-02-19T11:25:29.099Z,1008.81
2018-02-19T11:26:29.106Z,1008.85
2018-02-19T11:27:29.115Z,1008.77
2018-02-19T11:28:29.182Z,1008.79
2018-02-19T11:29:29.140Z,1008.77
2018-02-19T11:30:29.150Z,1008.76
2018-02-19T11:31:29.160Z,1008.72
2018-02-19T11:32:29.173Z,1008.68
2018-02-19T11:33:29.184Z,1008.74
2018-02-19T11:34:29.196Z,1008.7
2018-02-19T11:35:29.208Z,1008.72
2018-02-19T11:36:29.219Z,1008.73
2018-02-19T11:37:29.231Z,1008.68
2018-02-19T11:38:29.245Z,1008.7
2018-02-19T11:39:29.254Z,1008.68
2018-02-19T11:40:29.265Z,1008.69
2018-02-19T11:41:29.280Z,1008.65
2018-02-19T11:42:29.289Z,1008.64
2018-02-19T11:43:29.301Z,1008.63
2018-02-19T11:44:29.314Z,1008.62
2018-02-19T11:45:29.325Z,1008.62
2018-02-19T11:46:29.336Z,1008.56
2018-02-19T11:47:29.348Z,1008.6
2018-02-19T11:48:29.360Z,1008.57
2018-02-19T11:49:29.372Z,1008.57
2018-02-19T11:50:29.385Z,1008.54
2018-02-19T11:51:29.397Z,1008.53
2018-02-19T11:52:29.413Z,1008.52
2018-02-19T11:53:29.419Z,1008.54
2018-02-19T11:54:29.431Z,1008.5
2018-02-19T11:55:29.445Z,1008.55
2018-02-19T11:56:29.456Z,1008.52
2018-02-19T11:57:29.468Z,1008.45
2018-02-19T11:58:29.479Z,1008.41
2018-02-19T11:59:29.492Z,1008.43
2018-02-19T12:00:29.504Z,1008.38
2018-02-19T12:01:29.516Z,1008.43
2018-02-19T12:02:29.529Z,1008.38
2018-02-19T12:03:29.539Z,1008.38
2018-02-19T12:04:29.551Z,1008.4
2018-02-19T12:05:29.563Z,1008.4
2018-02-19T12:06:29.581Z,1008.39
2018-02-19T12:07:29.593Z,1008.33
2018-02-19T12:08:29.600Z,1008.32